Latest Weather Observations for Brisbane Airport

IDQ60901

Issued at 4:51 pm EST Thursday 30 June 2016 (issued every 10 minutes, with the page automatically refreshed every 10 minutes)

About weather observations | Map of Brisbane area stations | Latest observations for Brisbane area | Other Formats
Station Details ID: 040842 Name: BRISBANE AERO Lat: -27.39 Lon: 153.13 Height: 4.51 m
Data from the previous 72 hours. | See also: Recent months at Brisbane Airport
Date/Time
EST
Temp
°C
App
Temp
°C
Dew
Point
°C
Rel
Hum
%
Delta-T
°C
Wind Press
QNH
hPa
Press
MSL
hPa
Rain since
9am
mm
Dir  Spd
km/h
Gust
km/h
Spd
kts
Gust
kts
30/04:30pm 18.4 17.3 12.0 66 3.5 ENE 9 9 5 5 1020.3 1020.2 0.0
30/04:00pm 19.3 17.4 11.7 61 4.2 NE 13 15 7 8 1020.4 1020.3 0.0
30/03:30pm 19.7 17.6 11.1 57 4.7 NE 13 17 7 9 1020.3 1020.2 0.0
30/03:00pm 20.7 18.4 10.6 52 5.5 NE 13 19 7 10 1020.4 1020.3 0.0
30/02:30pm 20.4 17.9 9.7 50 5.7 NNE 13 17 7 9 1020.6 1020.5 0.0
30/02:00pm 20.5 18.2 10.3 52 5.5 NNE 13 19 7 10 1020.7 1020.6 0.0
30/01:30pm 20.4 18.6 10.9 54 5.2 NNE 11 17 6 9 1021.1 1021.0 0.0
30/01:00pm 20.2 19.1 10.1 52 5.4 SSE 6 13 3 7 1021.7 1021.6 0.0
30/12:30pm 19.7 18.5 10.2 54 5.1 SSE 7 15 4 8 1022.3 1022.2 0.0
30/12:00pm 19.4 17.3 8.4 49 5.7 SSE 9 17 5 9 1022.7 1022.6 0.0
30/11:30am 19.1 16.0 7.4 46 5.9 SSW 13 19 7 10 1023.3 1023.2 0.0
30/11:00am 18.0 14.4 6.9 48 5.5 SSW 15 19 8 10 1023.8 1023.7 0.0
30/10:30am 17.1 12.5 6.7 50 5.1 SW 20 26 11 14 1024.0 1023.9 0.0
30/10:00am 15.9 11.5 6.4 53 4.6 SSW 19 24 10 13 1024.3 1024.2 0.0
30/09:30am 14.8 10.2 6.5 57 4.0 SSW 20 26 11 14 1024.5 1024.4 0.0
30/09:00am 13.7 8.4 6.8 63 3.3 SSW 24 28 13 15 1024.4 1024.3 0.0
30/08:30am 12.0 7.8 7.4 73 2.2 SSW 19 26 10 14 1024.3 1024.2 0.0
30/08:00am 10.4 6.1 7.2 80 1.5 SSW 19 24 10 13 1024.2 1024.1 0.0
30/07:30am 9.2 5.2 6.8 85 1.1 SSW 17 20 9 11 1024.0 1023.9 0.0
30/07:00am 7.8 4.1 6.3 90 0.7 SSW 15 19 8 10 1023.7 1023.6 0.0
30/06:30am 7.8 4.1 6.3 90 0.7 SSW 15 17 8 9 1023.6 1023.5 0.0
30/06:00am 8.5 4.5 6.8 89 0.8 SSW 17 19 9 10 1023.4 1023.3 0.0
30/05:30am 8.6 5.0 6.6 87 0.9 SSW 15 19 8 10 1023.4 1023.3 0.0
30/05:00am 8.3 4.7 6.6 89 0.8 SSW 15 17 8 9 1023.3 1023.2 0.0
30/04:30am 8.6 5.0 6.6 87 0.9 SSW 15 19 8 10 1023.3 1023.2 0.0
30/04:00am 7.9 4.6 6.6 91 0.6 SW 13 15 7 8 1023.4 1023.3 0.0
30/03:30am 7.8 4.9 6.5 91 0.6 SW 11 13 6 7 1023.4 1023.3 0.0
30/03:00am 8.3 5.4 6.3 87 0.9 SW 11 13 6 7 1023.5 1023.4 0.0
30/02:30am 8.5 5.7 7.0 90 0.7 SSW 11 13 6 7 1023.8 1023.7 0.0
30/02:00am 9.1 6.0 7.2 88 0.9 SSW 13 15 7 8 1024.3 1024.2 0.0
30/01:30am 8.9 6.5 7.2 89 0.8 SSW 9 11 5 6 1024.7 1024.6 0.0
30/01:00am 9.2 6.9 7.5 89 0.8 SSW 9 11 5 6 1025.0 1024.9 0.0
30/12:30am 9.0 6.6 7.1 88 0.9 SW 9 9 5 5 1024.9 1024.8 0.0
30/12:00am 8.6 5.8 7.1 90 0.7 SW 11 11 6 6 1024.9 1024.8 0.0
 
Date/Time
EST
Temp
°C
App
Temp
°C
Dew
Point
°C
Rel
Hum
%
Delta-T
°C
Wind Press
QNH
hPa
Press
MSL
hPa
Rain since
9am
mm
Dir  Spd
km/h
Gust
km/h
Spd
kts
Gust
kts
29/11:30pm 10.3 8.1 7.8 84 1.2 SW 9 11 5 6 1025.1 1025.0 0.0
29/11:00pm 10.5 8.8 8.2 86 1.1 W 7 9 4 5 1025.3 1025.2 0.0
29/10:30pm 11.2 9.1 8.3 82 1.4 WSW 9 9 5 5 1025.5 1025.4 0.0
29/10:00pm 11.9 10.2 8.4 79 1.7 SSW 7 9 4 5 1025.5 1025.4 0.0
29/09:30pm 12.5 10.8 8.4 76 2.0 SSW 7 9 4 5 1025.4 1025.3 0.0
29/09:00pm 13.1 11.5 8.9 75 2.1 SSW 7 9 4 5 1025.4 1025.3 0.0
29/08:30pm 12.4 11.0 9.6 83 1.4 S 7 9 4 5 1025.5 1025.4 0.0
29/08:00pm 14.4 13.0 9.5 72 2.5 SSE 7 9 4 5 1025.6 1025.5 0.0
29/07:30pm 14.2 12.8 9.5 73 2.4 SSE 7 9 4 5 1025.6 1025.5 0.0
29/07:00pm 14.5 13.2 10.1 75 2.3 SSE 7 9 4 5 1025.6 1025.5 0.0
29/06:30pm 14.2 13.0 10.3 77 2.0 SSE 7 9 4 5 1025.4 1025.3 0.0
29/06:00pm 15.0 14.1 10.6 75 2.3 SE 6 7 3 4 1025.1 1025.0 0.0
29/05:30pm 16.3 15.2 10.6 69 3.0 E 7 9 4 5 1024.7 1024.6 0.0
29/05:00pm 17.3 17.0 10.1 62 3.8 NE 2 6 1 3 1024.5 1024.4 0.0
29/04:30pm 18.1 16.7 9.5 57 4.5 ENE 7 11 4 6 1024.3 1024.2 0.0
29/04:00pm 18.6 16.4 9.2 54 4.9 E 11 17 6 9 1024.2 1024.1 0.0
29/03:30pm 19.2 17.2 8.8 51 5.4 E 9 13 5 7 1024.0 1023.9 0.0
29/03:00pm 19.2 16.8 8.6 50 5.5 E 11 15 6 8 1023.8 1023.7 0.0
29/02:30pm 20.2 17.3 6.7 41 6.8 SE 11 19 6 10 1023.5 1023.4 0.0
29/02:00pm 20.1 16.4 6.2 40 6.9 SSW 15 20 8 11 1023.7 1023.6 0.0
29/01:30pm 19.8 15.8 6.6 42 6.6 S 17 28 9 15 1023.8 1023.7 0.0
29/01:00pm 19.3 15.8 5.3 39 6.8 S 13 19 7 10 1024.1 1024.0 0.0
29/12:30pm 19.3 15.4 5.3 39 6.8 SSW 15 20 8 11 1024.5 1024.4 0.0
29/12:00pm 19.1 14.7 5.0 39 6.8 SSW 17 20 9 11 1025.0 1024.9 0.0
29/11:30am 18.8 13.8 4.8 39 6.7 SSW 20 28 11 15 1025.5 1025.4 0.0
29/11:00am 17.7 12.8 4.9 42 6.1 SSW 20 26 11 14 1026.0 1025.9 0.0
29/10:30am 17.0 11.1 4.1 42 6.0 SSW 24 30 13 16 1026.4 1026.3 0.0
29/10:00am 15.8 9.5 3.5 43 5.6 SSW 26 33 14 18 1026.5 1026.4 0.0
29/09:30am 15.4 9.4 5.2 50 4.8 SW 26 32 14 17 1026.6 1026.5 0.0
29/09:00am 13.9 8.9 4.5 53 4.3 SSW 20 28 11 15 1026.3 1026.2 0.0
29/08:30am 12.9 8.2 5.1 59 3.6 SSW 19 24 10 13 1026.2 1026.1 0.0
29/08:00am 11.3 7.0 5.1 65 2.8 SSW 17 19 9 10 1025.9 1025.8 0.0
29/07:30am 10.2 6.2 4.8 69 2.4 SSW 15 19 8 10 1025.6 1025.5 0.0
29/07:00am 9.2 5.2 4.9 74 1.9 SSW 15 19 8 10 1025.5 1025.4 0.0
29/06:30am 8.7 4.6 4.6 75 1.8 SSW 15 19 8 10 1025.3 1025.2 0.0
29/06:00am 8.1 4.1 4.7 79 1.5 SSW 15 19 8 10 1025.1 1025.0 0.0
29/05:30am 8.3 3.8 4.4 76 1.7 SSW 17 20 9 11 1024.8 1024.7 0.0
29/05:00am 8.6 4.2 4.7 76 1.7 SSW 17 20 9 11 1024.6 1024.5 0.0
29/04:30am 8.2 4.2 4.8 79 1.5 SSW 15 19 8 10 1024.3 1024.2 0.0
29/04:00am 8.2 4.1 4.5 77 1.6 SSW 15 19 8 10 1024.2 1024.1 0.0
29/03:30am 9.3 5.6 4.5 72 2.1 SSW 13 17 7 9 1024.0 1023.9 0.0
29/03:00am 9.3 5.6 4.5 72 2.1 SSW 13 15 7 8 1023.9 1023.8 0.0
29/02:30am 9.5 5.4 4.5 71 2.2 SSW 15 17 8 9 1023.9 1023.8 0.0
29/02:00am 10.1 6.7 4.2 67 2.6 SSW 11 13 6 7 1024.3 1024.2 0.0
29/01:30am 8.0 3.8 3.8 75 1.8 SW 15 17 8 9 1024.4 1024.3 0.0
29/01:00am 8.2 4.8 3.8 74 1.9 WSW 11 13 6 7 1024.5 1024.4 0.0
29/12:30am 9.3 6.2 3.8 68 2.4 SW 9 11 5 6 1024.4 1024.3 0.0
29/12:00am 10.3 6.5 3.9 64 2.8 WSW 13 17 7 9 1024.6 1024.5 0.0
 
Date/Time
EST
Temp
°C
App
Temp
°C
Dew
Point
°C
Rel
Hum
%
Delta-T
°C
Wind Press
QNH
hPa
Press
MSL
hPa
Rain since
9am
mm
Dir  Spd
km/h
Gust
km/h
Spd
kts
Gust
kts
28/11:30pm 10.7 6.5 3.6 61 3.1 WSW 15 26 8 14 1024.5 1024.4 0.0
28/11:00pm 11.3 6.7 3.8 60 3.3 WSW 17 28 9 15 1024.4 1024.3 0.0
28/10:30pm 10.8 6.6 3.7 61 3.1 WSW 15 19 8 10 1024.3 1024.2 0.0
28/10:00pm 11.5 6.4 3.3 57 3.6 SW 19 24 10 13 1024.1 1024.0 0.0
28/09:30pm 12.5 7.4 3.2 53 4.1 SW 19 26 10 14 1023.9 1023.8 0.0
28/09:00pm 11.6 7.0 3.7 58 3.5 SW 17 22 9 12 1024.0 1023.9 0.0
28/08:30pm 12.3 7.7 3.5 55 3.9 SW 17 22 9 12 1024.0 1023.9 0.0
28/08:00pm 11.2 6.7 4.0 61 3.2 WSW 17 26 9 14 1023.7 1023.6 0.0
28/07:30pm 12.6 7.7 3.9 55 3.9 WSW 19 24 10 13 1023.5 1023.4 0.0
28/07:00pm 13.2 9.0 3.6 52 4.3 WSW 15 19 8 10 1023.2 1023.1 0.0
28/06:30pm 12.8 9.8 4.2 56 3.9 WSW 9 13 5 7 1022.7 1022.6 0.0
28/06:00pm 13.7 10.4 4.8 55 4.1 WSW 11 15 6 8 1022.2 1022.1 0.0
28/05:30pm 14.5 11.6 4.5 51 4.6 WNW 9 15 5 8 1021.7 1021.6 0.0
28/05:00pm 15.5 12.0 3.4 44 5.5 W 11 15 6 8 1021.2 1021.1 0.0
28/04:30pm 16.8 12.2 3.6 41 6.1 W 17 24 9 13 1020.9 1020.8 0.0
28/04:00pm 17.5 12.8 3.1 38 6.6 WSW 17 26 9 14 1020.5 1020.4 0.0
28/03:30pm 17.7 12.3 2.5 36 6.9 W 20 30 11 16 1020.2 1020.1 0.0
28/03:00pm 17.9 12.1 2.5 35 7.0 WSW 22 32 12 17 1020.0 1019.9 0.0
28/02:30pm 17.5 10.5 2.2 36 6.9 WSW 28 35 15 19 1019.7 1019.6 0.0
28/02:00pm 17.6 11.5 2.7 37 6.8 WSW 24 35 13 19 1019.6 1019.5 0.0
28/01:30pm 17.2 10.7 2.4 37 6.7 WSW 26 35 14 19 1019.9 1019.8 0.0
28/01:00pm 16.5 9.9 1.9 37 6.5 WSW 26 33 14 18 1019.9 1019.8 0.0
28/12:30pm 16.3 9.2 1.5 36 6.5 SW 28 35 15 19 1020.0 1019.9 0.0
28/12:00pm 15.8 8.8 1.7 38 6.2 WSW 28 35 15 19 1020.5 1020.4 0.0
28/11:30am 15.0 7.2 1.4 39 5.9 WSW 32 37 17 20 1020.6 1020.5 0.0
28/11:00am 14.8 7.8 1.7 41 5.7 WSW 28 35 15 19 1021.0 1020.9 0.0
28/10:30am 13.5 6.7 1.0 42 5.3 WSW 26 37 14 20 1021.3 1021.2 0.0
28/10:00am 13.1 5.6 1.0 43 5.1 WSW 30 39 16 21 1021.4 1021.3 0.0
28/09:30am 11.9 3.7 0.5 45 4.7 SW 33 43 18 23 1021.4 1021.3 0.0
28/09:00am 11.4 4.2 0.7 47 4.4 WSW 28 37 15 20 1021.3 1021.2 0.4
28/08:30am 10.7 2.8 1.0 51 4.0 WSW 32 39 17 21 1021.3 1021.2 0.4
28/08:00am 9.9 2.0 1.1 54 3.6 WSW 32 39 17 21 1021.0 1020.9 0.4
28/07:36am 9.3 1.8 1.2 57 3.3 WSW 30 48 16 26 1021.0 1020.9 0.4
28/07:30am 9.2 1.1 1.1 57 3.3 WSW 33 48 18 26 1020.9 1020.8 0.4
28/07:00am 8.6 1.4 0.9 58 3.1 WSW 28 39 15 21 1020.7 1020.6 0.4
28/06:30am 8.5 1.7 1.1 59 3.0 SW 26 35 14 19 1020.3 1020.2 0.4
28/06:00am 8.5 1.4 1.4 61 2.9 WSW 28 37 15 20 1019.7 1019.6 0.4
28/05:30am 8.7 0.3 1.6 61 2.9 WSW 35 44 19 24 1019.1 1019.0 0.4
28/05:00am 8.7 1.3 1.6 61 2.9 WSW 30 35 16 19 1019.0 1018.9 0.4
28/04:30am 8.8 0.4 1.5 60 3.0 WSW 35 46 19 25 1018.7 1018.6 0.4
28/04:06am 8.8 -0.3 1.8 61 2.9 WSW 39 57 21 31 1018.3 1018.2 0.4
28/04:00am 8.9 -0.6 1.6 60 3.0 WSW 41 57 22 31 1018.3 1018.2 0.4
28/03:32am 9.1 0.0 1.6 59 3.1 WSW 39 57 21 31 1018.2 1018.1 0.4
28/03:30am 8.9 0.2 1.9 61 2.9 WSW 37 50 20 27 1018.1 1018.0 0.4
28/03:00am 9.0 -0.1 1.7 60 3.0 WSW 39 50 21 27 1018.3 1018.2 0.4
28/02:30am 9.1 0.8 1.9 60 3.0 WSW 35 48 19 26 1018.2 1018.1 0.4
28/02:00am 9.1 1.1 1.9 60 3.0 WSW 33 48 18 26 1018.4 1018.3 0.4
28/01:30am 9.2 1.8 1.7 59 3.1 WSW 30 41 16 22 1018.6 1018.5 0.4
28/01:00am 9.2 1.7 1.4 58 3.2 WSW 30 37 16 20 1018.7 1018.6 0.4
28/12:30am 9.7 2.3 1.8 58 3.3 WSW 30 39 16 21 1018.7 1018.6 0.4
28/12:00am 10.0 2.2 1.9 57 3.4 WSW 32 44 17 24 1018.8 1018.7 0.4
 
Date/Time
EST
Temp
°C
App
Temp
°C
Dew
Point
°C
Rel
Hum
%
Delta-T
°C
Wind Press
QNH
hPa
Press
MSL
hPa
Rain since
9am
mm
Dir  Spd
km/h
Gust
km/h
Spd
kts
Gust
kts
27/11:30pm 10.1 2.9 2.9 61 3.1 WSW 30 39 16 21 1019.0 1018.9 0.4
27/11:00pm 10.4 4.0 3.0 60 3.2 WSW 26 35 14 19 1019.0 1018.9 0.4
27/10:30pm 10.6 2.5 3.5 61 3.1 WSW 35 41 19 22 1018.9 1018.8 0.4
27/10:00pm 11.1 3.4 3.6 60 3.3 WSW 33 41 18 22 1018.9 1018.8 0.4
27/09:30pm 10.8 3.7 3.5 60 3.2 WSW 30 39 16 21 1018.9 1018.8 0.4
27/09:00pm 11.3 3.2 3.3 58 3.5 WSW 35 43 19 23 1018.5 1018.4 0.4
27/08:30pm 11.4 3.7 3.2 57 3.6 SW 33 44 18 24 1018.3 1018.2 0.4
27/08:00pm 11.7 5.0 3.6 57 3.6 WSW 28 37 15 20 1018.0 1017.9 0.4
27/07:31pm 12.1 5.0 3.5 55 3.8 WSW 30 48 16 26 1017.8 1017.8 0.4
27/07:30pm 12.1 4.6 3.5 55 3.8 WSW 32 48 17 26 1017.8 1017.8 0.4
27/07:02pm 12.3 5.3 4.3 58 3.6 WSW 30 48 16 26 1017.3 1017.3 0.4
27/07:00pm 12.5 5.9 4.3 57 3.7 WSW 28 37 15 20 1017.2 1017.2 0.4
27/06:30pm 12.4 6.7 4.7 59 3.5 WSW 24 32 13 17 1017.1 1017.1 0.4
27/06:00pm 12.8 7.1 5.0 59 3.6 WSW 24 46 13 25 1016.9 1016.9 0.4
27/05:30pm 13.3 6.0 5.6 59 3.6 WSW 33 56 18 30 1016.4 1016.4 0.4
27/05:22pm 13.5 6.2 5.6 59 3.7 WSW 33 56 18 30 1016.3 1016.3 0.4
27/05:00pm 14.1 7.6 6.6 60 3.6 WSW 30 43 16 23 1016.0 1016.0 0.4

Latest Capital City Observations: Canberra | Sydney | Melbourne | Brisbane | Adelaide | Perth | Hobart | Darwin

Other Formats:

Comma delimited format used in spreadsheet applications
http://www.bom.gov.au/fwo/IDQ60901/IDQ60901.94578.axf

JavaScript Object Notation format (JSON) in row-major order
http://www.bom.gov.au/fwo/IDQ60901/IDQ60901.94578.json